Time;durP1;ratioP1;P1;durP2;ratioP2;P2;SDS_P1;SDS_P2;PMS_P1;PMS_P2;Temp;Humidity;BMP_temperature;BMP_pressure;BME280_temperature;BME280_humidity;BME280_pressure;Samples;Min_cycle;Max_cycle;Signal;HPM_P1;HPM_P2
2023/07/17 00:02:09;;;;;;;8.60;5.37;;;18.40;1.00;;;;;;4987445;28;20215;-75
2023/07/17 00:04:36;;;;;;;10.43;5.30;;;18.50;1.00;;;;;;4987757;28;20483;-76
2023/07/17 00:07:02;;;;;;;9.17;4.90;;;18.40;1.00;;;;;;4989405;28;20213;-75
2023/07/17 00:09:27;;;;;;;8.93;4.93;;;18.40;1.00;;;;;;4986025;28;20494;-76
2023/07/17 00:11:53;;;;;;;8.43;5.30;;;18.40;1.00;;;;;;4993008;28;20245;-75
2023/07/17 00:14:18;;;;;;;11.13;5.23;;;18.30;1.00;;;;;;4988673;28;20193;-75
2023/07/17 00:16:44;;;;;;;8.17;5.20;;;18.30;1.00;;;;;;4997384;28;20270;-75
2023/07/17 00:19:09;;;;;;;8.80;5.50;;;18.30;1.00;;;;;;4988509;28;20541;-75
2023/07/17 00:21:35;;;;;;;10.27;5.13;;;18.30;1.00;;;;;;4988948;28;20202;-75
2023/07/17 00:24:00;;;;;;;9.40;5.93;;;18.30;1.00;;;;;;4987634;28;20727;-75
2023/07/17 00:26:26;;;;;;;7.27;4.60;;;18.30;1.00;;;;;;4987794;28;20198;-73
2023/07/17 00:29:15;;;;;;;9.97;5.43;;;18.30;1.00;;;;;;4987225;28;20179;-75
2023/07/17 00:31:40;;;;;;;9.50;5.13;;;18.30;1.00;;;;;;4989098;28;20219;-75
2023/07/17 00:34:06;;;;;;;8.60;5.50;;;18.30;1.00;;;;;;4991498;28;20530;-75
2023/07/17 00:36:31;;;;;;;7.10;5.10;;;18.30;1.00;;;;;;4992697;28;20194;-74
2023/07/17 00:38:57;;;;;;;8.70;5.07;;;18.30;1.00;;;;;;4992636;28;20665;-75
2023/07/17 00:41:22;;;;;;;8.17;5.60;;;18.30;1.00;;;;;;4991620;28;20199;-74
2023/07/17 00:43:48;;;;;;;9.43;5.23;;;18.50;1.00;;;;;;4991332;28;20179;-74
2023/07/17 00:46:13;;;;;;;8.57;5.23;;;18.20;1.00;;;;;;4993516;28;20198;-75
2023/07/17 00:48:39;;;;;;;6.87;5.17;;;18.20;1.00;;;;;;4989624;28;20683;-76
2023/07/17 00:51:05;;;;;;;9.93;5.47;;;18.10;1.00;;;;;;4991794;28;20211;-74
2023/07/17 00:53:30;;;;;;;8.10;5.27;;;18.10;1.00;;;;;;4986433;28;20199;-75
2023/07/17 00:55:56;;;;;;;7.33;4.80;;;18.20;1.00;;;;;;4991894;28;20183;-76
2023/07/17 00:58:21;;;;;;;7.40;4.77;;;18.20;1.00;;;;;;5005277;28;20713;-76
2023/07/17 01:00:47;;;;;;;7.77;5.30;;;18.30;1.00;;;;;;4990777;28;20749;-75
2023/07/17 01:03:14;;;;;;;7.67;5.07;;;18.30;1.00;;;;;;4989886;28;20310;-74
2023/07/17 01:05:39;;;;;;;13.53;4.87;;;18.20;1.00;;;;;;4990720;28;20804;-75
2023/07/17 01:08:05;;;;;;;9.57;5.13;;;18.20;1.00;;;;;;4987290;28;20442;-74
2023/07/17 01:10:31;;;;;;;8.73;5.10;;;18.20;1.00;;;;;;4989659;28;20215;-74
2023/07/17 01:12:56;;;;;;;8.00;5.10;;;18.20;1.00;;;;;;4990789;28;20186;-73
2023/07/17 01:15:22;;;;;;;10.37;5.03;;;18.20;1.00;;;;;;4989220;28;20210;-74
2023/07/17 01:17:47;;;;;;;7.40;4.57;;;18.20;1.00;;;;;;4990183;28;20283;-74
2023/07/17 01:20:13;;;;;;;6.33;4.60;;;18.20;1.00;;;;;;4990769;28;20242;-75
2023/07/17 01:22:59;;;;;;;12.00;5.00;;;18.30;1.00;;;;;;4989884;28;20211;-75
2023/07/17 01:25:24;;;;;;;8.47;4.60;;;18.30;1.00;;;;;;4990056;28;20266;-74
2023/07/17 01:27:50;;;;;;;7.90;5.03;;;20.80;1.00;;;;;;4988995;28;20525;-74
2023/07/17 01:30:15;;;;;;;9.40;5.03;;;18.30;1.00;;;;;;4989735;28;20265;-75
2023/07/17 01:32:41;;;;;;;12.70;4.73;;;18.30;1.00;;;;;;4989099;28;20208;-75
2023/07/17 01:35:07;;;;;;;7.17;5.10;;;18.30;1.00;;;;;;4990704;28;20601;-74
2023/07/17 01:37:32;;;;;;;7.73;4.90;;;18.30;1.00;;;;;;4989223;28;20665;-75
2023/07/17 01:39:58;;;;;;;14.23;5.63;;;18.40;1.00;;;;;;4989910;28;20497;-75
2023/07/17 01:42:23;;;;;;;8.70;5.10;;;18.40;1.00;;;;;;4989243;28;20219;-76
2023/07/17 01:44:49;;;;;;;9.97;5.20;;;18.50;1.00;;;;;;4988222;28;20182;-75
2023/07/17 01:47:14;;;;;;;7.70;5.17;;;18.50;1.00;;;;;;4988781;28;20558;-75
2023/07/17 01:49:41;;;;;;;16.57;5.53;;;18.60;1.00;;;;;;4990115;28;20291;-74
2023/07/17 01:52:08;;;;;;;9.00;5.77;;;18.70;1.00;;;;;;4989408;28;20269;-74
2023/07/17 01:54:34;;;;;;;7.03;4.80;;;18.70;1.00;;;;;;4989827;28;20827;-74
2023/07/17 01:57:00;;;;;;;7.57;4.90;;;18.60;1.00;;;;;;4988424;28;20449;-74
2023/07/17 01:59:25;;;;;;;8.00;4.80;;;18.70;1.00;;;;;;4988283;28;21028;-74
2023/07/17 02:01:51;;;;;;;8.87;5.20;;;18.50;1.00;;;;;;4989829;28;20207;-74
2023/07/17 02:04:16;;;;;;;8.97;4.70;;;18.50;1.00;;;;;;4992902;28;20186;-75
2023/07/17 02:06:42;;;;;;;7.10;5.03;;;18.50;1.00;;;;;;4987577;28;20184;-74
2023/07/17 02:09:08;;;;;;;9.63;5.87;;;18.40;1.00;;;;;;4988150;28;20616;-74
2023/07/17 02:11:33;;;;;;;6.93;4.80;;;21.20;1.00;;;;;;4988603;28;20285;-76
2023/07/17 02:13:59;;;;;;;8.93;5.50;;;;;;;;;;4989392;28;20175;-75
2023/07/17 02:16:25;;;;;;;7.27;4.77;;;18.40;1.00;;;;;;4989677;28;20574;-74
2023/07/17 02:18:50;;;;;;;10.40;4.90;;;18.40;1.00;;;;;;4988682;28;20446;-74
2023/07/17 02:21:16;;;;;;;11.30;5.37;;;18.30;1.00;;;;;;4989554;28;20206;-74
2023/07/17 02:23:41;;;;;;;8.13;4.97;;;18.30;1.00;;;;;;4987072;28;20201;-75
2023/07/17 02:26:09;;;;;;;11.80;5.37;;;18.30;1.00;;;;;;4988734;28;20214;-73
2023/07/17 02:28:34;;;;;;;7.97;5.40;;;18.30;1.00;;;;;;4988965;28;20222;-76
2023/07/17 02:31:00;;;;;;;12.67;4.77;;;18.30;1.00;;;;;;4989561;28;20508;-74
2023/07/17 02:33:25;;;;;;;9.03;5.37;;;18.40;1.00;;;;;;4987771;28;20183;-74
2023/07/17 02:35:51;;;;;;;9.43;4.60;;;18.40;1.00;;;;;;4987603;28;20179;-74
2023/07/17 02:38:16;;;;;;;8.80;5.00;;;18.40;1.00;;;;;;4988032;28;20186;-74
2023/07/17 02:40:42;;;;;;;9.13;4.90;;;18.50;1.00;;;;;;4989250;28;20229;-76
2023/07/17 02:43:09;;;;;;;11.60;4.97;;;18.50;1.00;;;;;;4987992;28;20661;-74
2023/07/17 02:45:35;;;;;;;11.03;5.17;;;18.60;1.00;;;;;;4987499;28;20186;-74
2023/07/17 02:48:01;;;;;;;6.63;4.93;;;18.60;1.00;;;;;;4987355;28;20445;-75
2023/07/17 02:50:26;;;;;;;6.20;4.60;;;18.70;1.00;;;;;;4989177;28;20465;-74
2023/07/17 02:52:52;;;;;;;8.00;4.93;;;18.60;1.00;;;;;;4988635;28;20217;-74
2023/07/17 02:55:17;;;;;;;7.13;5.00;;;18.70;1.00;;;;;;4986927;28;20549;-74
2023/07/17 02:57:43;;;;;;;11.50;4.83;;;18.70;1.00;;;;;;4988573;28;20607;-74
2023/07/17 03:00:12;;;;;;;9.50;5.00;;;18.70;1.00;;;;;;4988348;28;20664;-74
2023/07/17 03:02:39;;;;;;;8.27;4.70;;;18.70;1.00;;;;;;4988658;28;20337;-77
2023/07/17 03:05:06;;;;;;;7.03;5.00;;;18.80;1.00;;;;;;4984983;28;20880;-74
2023/07/17 03:07:34;;;;;;;9.97;4.80;;;18.70;1.00;;;;;;4986870;28;20450;-74
2023/07/17 03:10:00;;;;;;;6.90;4.73;;;18.70;1.00;;;;;;4987895;28;20462;-73
2023/07/17 03:12:25;;;;;;;10.63;5.17;;;18.70;1.00;;;;;;4987771;28;20528;-74
2023/07/17 03:14:50;;;;;;;8.10;4.90;;;19.00;1.00;;;;;;4986885;28;20398;-74
2023/07/17 03:17:16;;;;;;;7.87;4.93;;;18.70;1.00;;;;;;4988252;28;20569;-74
2023/07/17 03:19:41;;;;;;;10.07;5.00;;;18.70;1.00;;;;;;4986252;28;20266;-76
2023/07/17 03:22:07;;;;;;;7.13;4.93;;;18.80;1.00;;;;;;4986904;28;20202;-74
2023/07/17 03:24:33;;;;;;;6.97;5.00;;;18.80;1.00;;;;;;4986280;28;20693;-73
2023/07/17 03:27:01;;;;;;;7.20;4.73;;;18.70;1.00;;;;;;4988126;28;20190;-75
2023/07/17 03:29:27;;;;;;;8.70;4.90;;;18.60;1.00;;;;;;4987874;28;20561;-74
2023/07/17 03:31:53;;;;;;;6.20;4.93;;;18.60;1.00;;;;;;4986699;28;20450;-74
2023/07/17 03:34:19;;;;;;;11.40;4.80;;;18.60;1.00;;;;;;4986725;28;20179;-74
2023/07/17 03:36:45;;;;;;;9.40;5.10;;;18.60;1.00;;;;;;4986677;28;20841;-74
2023/07/17 03:39:11;;;;;;;7.83;4.77;;;18.60;1.00;;;;;;4988590;28;20233;-75
2023/07/17 03:41:37;;;;;;;12.10;5.03;;;18.60;1.00;;;;;;4988488;28;21039;-75
2023/07/17 03:44:03;;;;;;;7.10;4.80;;;18.60;1.00;;;;;;4986882;28;20739;-75
2023/07/17 03:46:30;;;;;;;8.77;4.87;;;18.50;1.00;;;;;;4987430;28;20504;-75
2023/07/17 03:48:55;;;;;;;7.53;4.30;;;18.40;1.00;;;;;;4987307;28;20458;-75
2023/07/17 03:51:21;;;;;;;7.03;4.77;;;18.40;1.00;;;;;;4988618;28;20496;-75
2023/07/17 03:53:47;;;;;;;9.37;4.90;;;18.40;1.00;;;;;;4986711;28;20191;-74
2023/07/17 03:56:12;;;;;;;7.00;5.03;;;18.30;1.00;;;;;;4986455;28;20202;-75
2023/07/17 03:58:38;;;;;;;10.93;4.87;;;18.30;1.00;;;;;;4988089;28;20258;-75
2023/07/17 04:01:03;;;;;;;8.80;5.00;;;18.30;1.00;;;;;;4987903;28;20203;-75
2023/07/17 04:03:29;;;;;;;7.77;5.13;;;18.30;1.00;;;;;;4987074;28;20195;-75
2023/07/17 04:05:54;;;;;;;9.63;4.87;;;18.30;1.00;;;;;;4986257;28;20198;-74
2023/07/17 04:08:20;;;;;;;7.97;4.80;;;18.40;1.00;;;;;;4987790;28;20264;-77
2023/07/17 04:10:45;;;;;;;9.57;5.10;;;18.40;1.00;;;;;;4986719;28;20215;-75
2023/07/17 04:13:13;;;;;;;10.20;5.07;;;18.40;1.00;;;;;;4991380;28;20222;-75
2023/07/17 04:15:38;;;;;;;8.87;5.30;;;18.50;1.00;;;;;;4987867;28;20649;-75
2023/07/17 04:18:04;;;;;;;14.30;5.47;;;18.60;1.00;;;;;;4987363;28;20464;-75
2023/07/17 04:20:30;;;;;;;15.13;5.53;;;18.60;1.00;;;;;;4987464;28;20201;-74
2023/07/17 04:22:55;;;;;;;8.50;5.00;;;18.60;1.00;;;;;;4985185;28;20202;-74
2023/07/17 04:25:21;;;;;;;13.10;5.33;;;18.60;1.00;;;;;;4987165;28;20199;-74
2023/07/17 04:27:46;;;;;;;7.27;4.70;;;18.70;1.00;;;;;;4986036;28;20259;-72
2023/07/17 04:30:12;;;;;;;13.30;4.83;;;18.60;1.00;;;;;;4986368;28;20713;-74
2023/07/17 04:32:37;;;;;;;7.93;5.10;;;18.80;1.00;;;;;;4986235;28;20294;-74
2023/07/17 04:35:03;;;;;;;9.13;4.80;;;18.90;1.00;;;;;;4987003;28;20215;-74
2023/07/17 04:37:29;;;;;;;9.87;5.10;;;19.00;1.00;;;;;;4987686;28;20743;-75
2023/07/17 04:39:54;;;;;;;8.50;5.83;;;19.00;1.00;;;;;;4987308;28;20199;-74
2023/07/17 04:42:20;;;;;;;11.90;5.13;;;19.00;1.00;;;;;;4987272;28;20297;-74
2023/07/17 04:44:45;;;;;;;7.13;5.20;;;19.10;1.00;;;;;;4992479;28;20221;-75
2023/07/17 04:47:11;;;;;;;9.50;4.33;;;19.10;1.00;;;;;;4985915;28;20195;-74
2023/07/17 04:49:37;;;;;;;8.60;4.83;;;19.20;1.00;;;;;;4987279;28;20265;-75
2023/07/17 04:52:03;;;;;;;8.47;4.80;;;19.40;1.00;;;;;;4987327;28;20509;-75
2023/07/17 04:54:28;;;;;;;12.17;5.33;;;19.40;1.00;;;;;;4987241;28;20191;-75
2023/07/17 04:56:54;;;;;;;8.60;5.10;;;19.40;1.00;;;;;;4985218;28;20191;-73
2023/07/17 04:59:20;;;;;;;7.70;5.33;;;19.50;1.00;;;;;;4983799;28;20187;-74
2023/07/17 05:01:45;;;;;;;10.27;4.97;;;19.60;1.00;;;;;;4985526;28;20229;-74
2023/07/17 05:04:11;;;;;;;7.13;4.77;;;19.50;1.00;;;;;;4985546;28;20976;-75
2023/07/17 05:06:36;;;;;;;9.70;5.17;;;19.50;1.00;;;;;;4986958;28;20198;-74
2023/07/17 05:09:02;;;;;;;7.30;4.70;;;19.50;1.00;;;;;;4986674;28;20175;-74
2023/07/17 05:11:27;;;;;;;10.37;5.20;;;19.50;1.00;;;;;;4986198;28;20736;-74
2023/07/17 05:13:53;;;;;;;8.53;5.20;;;19.40;1.00;;;;;;4986299;28;20184;-74
2023/07/17 05:16:19;;;;;;;10.40;4.97;;;19.60;1.00;;;;;;4985536;28;20194;-72
2023/07/17 05:18:44;;;;;;;9.80;5.70;;;19.40;1.00;;;;;;4990155;28;20266;-74
2023/07/17 05:21:10;;;;;;;10.40;5.10;;;19.40;1.00;;;;;;4989897;28;20223;-75
2023/07/17 05:23:35;;;;;;;9.97;4.97;;;19.40;1.00;;;;;;4987798;28;20187;-76
2023/07/17 05:26:03;;;;;;;8.60;4.80;;;19.40;1.00;;;;;;4987121;28;20187;-74
2023/07/17 05:28:29;;;;;;;8.40;4.93;;;19.40;1.00;;;;;;4987972;28;20604;-75
2023/07/17 05:30:55;;;;;;;10.60;5.40;;;19.40;1.00;;;;;;4988269;28;20461;-75
2023/07/17 05:33:22;;;;;;;11.40;5.00;;;19.40;1.00;;;;;;4989265;28;20190;-74
2023/07/17 05:35:48;;;;;;;8.80;4.90;;;19.50;1.00;;;;;;4991647;28;20512;-74
2023/07/17 05:38:13;;;;;;;9.40;5.23;;;19.70;1.00;;;;;;4993908;28;20510;-74
2023/07/17 05:40:40;;;;;;;12.87;5.27;;;19.70;1.00;;;;;;4992183;28;20190;-75
2023/07/17 05:43:06;;;;;;;9.77;5.17;;;19.70;1.00;;;;;;4991090;28;20185;-75
2023/07/17 05:45:32;;;;;;;13.43;4.63;;;19.80;1.00;;;;;;4990202;28;20444;-75
2023/07/17 05:47:57;;;;;;;8.90;4.90;;;20.00;1.00;;;;;;4990708;28;20430;-75
2023/07/17 05:50:23;;;;;;;10.47;4.63;;;20.10;1.00;;;;;;4990815;28;20218;-75
2023/07/17 05:52:49;;;;;;;12.93;4.77;;;20.10;1.00;;;;;;4990734;28;20253;-75
2023/07/17 05:55:15;;;;;;;9.70;4.87;;;20.10;1.00;;;;;;4991577;28;20179;-75
2023/07/17 05:57:41;;;;;;;8.63;5.10;;;20.20;1.00;;;;;;4991231;28;20183;-75
2023/07/17 06:00:11;;;;;;;13.87;5.20;;;20.30;1.00;;;;;;4989819;28;20830;-75
2023/07/17 06:02:36;;;;;;;9.57;5.23;;;20.30;1.00;;;;;;4997619;28;20465;-76
2023/07/17 06:05:02;;;;;;;8.20;4.77;;;20.40;1.00;;;;;;4991936;28;20426;-75
2023/07/17 06:07:29;;;;;;;10.97;5.40;;;20.60;1.00;;;;;;5037517;22;20222;-75
2023/07/17 06:09:54;;;;;;;10.43;4.80;;;20.40;1.00;;;;;;5022256;28;20267;-75
2023/07/17 06:12:20;;;;;;;10.87;4.60;;;20.70;1.00;;;;;;5011887;28;20425;-75
2023/07/17 06:14:45;;;;;;;10.17;4.80;;;20.80;1.00;;;;;;5011770;28;20193;-75
2023/07/17 06:17:11;;;;;;;8.80;5.20;;;20.70;1.00;;;;;;5013201;28;20202;-75
2023/07/17 06:19:36;;;;;;;8.67;4.70;;;20.80;1.00;;;;;;5030284;28;20185;-76
2023/07/17 06:22:02;;;;;;;10.73;4.50;;;20.80;1.00;;;;;;5026798;28;20182;-73
2023/07/17 06:24:27;;;;;;;8.90;4.57;;;21.10;1.00;;;;;;5025542;28;20178;-77
2023/07/17 06:26:53;;;;;;;10.97;5.10;;;21.10;1.00;;;;;;5017934;28;20225;-75
2023/07/17 06:29:18;;;;;;;12.70;4.47;;;21.40;1.00;;;;;;5027299;28;20215;-78
2023/07/17 06:31:44;;;;;;;11.07;4.67;;;21.50;1.00;;;;;;5023592;28;20205;-76
2023/07/17 06:34:09;;;;;;;10.37;4.60;;;21.70;1.00;;;;;;5022857;28;20181;-76
2023/07/17 06:36:35;;;;;;;11.77;4.50;;;21.70;1.00;;;;;;5019324;28;20564;-76
2023/07/17 06:39:00;;;;;;;8.47;4.70;;;21.80;1.00;;;;;;5027414;28;20608;-76
2023/07/17 06:41:26;;;;;;;11.70;4.77;;;21.80;1.00;;;;;;5017463;28;20189;-75
2023/07/17 06:43:51;;;;;;;6.80;4.33;;;21.90;1.00;;;;;;5020130;28;20186;-75
2023/07/17 06:46:17;;;;;;;10.03;4.90;;;21.90;1.00;;;;;;5024763;28;20652;-78
2023/07/17 06:48:43;;;;;;;9.60;4.50;;;22.00;1.00;;;;;;5018855;28;20181;-74
2023/07/17 06:51:08;;;;;;;9.30;5.07;;;22.10;1.00;;;;;;5024757;28;20216;-75
2023/07/17 06:53:34;;;;;;;7.93;4.83;;;22.10;1.00;;;;;;5027277;28;20178;-77
2023/07/17 06:56:00;;;;;;;9.20;4.63;;;22.20;1.00;;;;;;5020346;28;20562;-77
2023/07/17 06:58:26;;;;;;;7.13;4.27;;;22.20;1.00;;;;;;5011868;28;20709;-77
2023/07/17 07:00:59;;;;;;;8.80;4.13;;;22.70;1.00;;;;;;5025725;28;20428;-74
2023/07/17 07:03:26;;;;;;;10.67;5.20;;;22.50;1.00;;;;;;5023394;28;20776;-73
2023/07/17 07:06:01;;;;;;;11.70;5.13;;;22.70;1.00;;;;;;5023999;28;20794;-73
2023/07/17 07:08:29;;;;;;;11.47;4.10;;;22.70;1.00;;;;;;5021243;28;20504;-75
2023/07/17 07:10:56;;;;;;;10.13;5.20;;;22.80;1.00;;;;;;5029742;28;20471;-74
2023/07/17 07:13:22;;;;;;;8.77;4.43;;;22.90;1.00;;;;;;5024355;28;21041;-74
2023/07/17 07:15:49;;;;;;;9.10;4.63;;;23.20;1.00;;;;;;5029311;28;20436;-77
2023/07/17 07:18:15;;;;;;;10.03;4.30;;;23.10;1.00;;;;;;5020876;28;20532;-75
2023/07/17 07:20:40;;;;;;;8.77;4.80;;;23.40;1.00;;;;;;5015646;28;20535;-74
2023/07/17 07:23:06;;;;;;;8.70;4.83;;;23.60;1.00;;;;;;5014074;28;20615;-76
2023/07/17 07:25:31;;;;;;;7.80;4.43;;;23.80;1.00;;;;;;5013405;28;20200;-74
2023/07/17 07:27:59;;;;;;;11.70;5.10;;;23.70;1.00;;;;;;5022439;28;20618;-74
2023/07/17 07:30:25;;;;;;;13.23;4.50;;;24.00;1.00;;;;;;5022876;28;20471;-74
2023/07/17 07:32:50;;;;;;;8.53;4.37;;;24.10;1.00;;;;;;5019041;28;20432;-74
2023/07/17 07:35:16;;;;;;;7.13;4.60;;;24.40;1.00;;;;;;5010993;28;20189;-75
2023/07/17 07:37:41;;;;;;;7.47;4.20;;;25.00;1.00;;;;;;5017527;28;20682;-74
2023/07/17 07:40:11;;;;;;;8.87;4.10;;;25.30;1.00;;;;;;5027420;28;20295;-75
2023/07/17 07:42:36;;;;;;;8.97;4.20;;;25.70;1.00;;;;;;5029922;28;20659;-75
2023/07/17 07:45:02;;;;;;;8.43;4.10;;;26.00;1.00;;;;;;5022705;28;20429;-78
2023/07/17 07:47:28;;;;;;;6.83;4.10;;;26.20;1.00;;;;;;5019685;28;20519;-75
2023/07/17 07:49:53;;;;;;;8.33;4.27;;;26.30;1.00;;;;;;5018601;28;20206;-75
2023/07/17 07:52:19;;;;;;;7.47;4.13;;;26.10;1.00;;;;;;5026424;28;20181;-75
2023/07/17 07:54:45;;;;;;;10.30;4.30;;;25.90;1.00;;;;;;5019090;28;20736;-77
2023/07/17 07:57:10;;;;;;;8.63;4.73;;;25.90;1.00;;;;;;5016959;28;20201;-78
2023/07/17 07:59:36;;;;;;;7.60;4.17;;;26.00;1.00;;;;;;5015915;28;20177;-75
2023/07/17 08:02:02;;;;;;;8.60;5.07;;;26.20;1.00;;;;;;5012913;28;20238;-76
2023/07/17 08:04:28;;;;;;;6.83;3.87;;;26.50;1.00;;;;;;5021439;28;20174;-75
2023/07/17 08:06:55;;;;;;;8.67;4.80;;;26.30;1.00;;;;;;5027375;28;20207;-76
2023/07/17 08:09:20;;;;;;;9.70;4.67;;;26.10;1.00;;;;;;5018020;28;20535;-75
2023/07/17 08:11:46;;;;;;;11.37;4.63;;;26.00;1.00;;;;;;5029862;28;20539;-76
2023/07/17 08:14:12;;;;;;;6.90;4.13;;;26.20;1.00;;;;;;5024822;28;20228;-75
2023/07/17 08:16:37;;;;;;;8.33;4.30;;;26.00;1.00;;;;;;5017699;28;20691;-79
2023/07/17 08:19:03;;;;;;;9.73;4.60;;;25.80;1.00;;;;;;5018624;28;20623;-76
2023/07/17 08:21:28;;;;;;;13.40;4.47;;;25.50;1.00;;;;;;5018173;28;20204;-74
2023/07/17 08:23:54;;;;;;;10.03;5.10;;;25.40;1.00;;;;;;5010703;28;20235;-75
2023/07/17 08:26:20;;;;;;;10.23;4.33;;;25.70;1.00;;;;;;5025965;28;20713;-75
2023/07/17 08:28:46;;;;;;;7.57;4.20;;;26.10;1.00;;;;;;5015746;28;20209;-75
2023/07/17 08:31:11;;;;;;;6.90;3.80;;;26.60;1.00;;;;;;5025700;28;20683;-74
2023/07/17 08:33:37;;;;;;;8.83;3.90;;;26.80;1.00;;;;;;5020366;28;20212;-76
2023/07/17 08:36:03;;;;;;;8.63;4.20;;;27.30;1.00;;;;;;5024995;28;20235;-78
2023/07/17 08:38:28;;;;;;;7.70;4.10;;;27.40;1.00;;;;;;5013063;28;20181;-78
2023/07/17 08:40:54;;;;;;;8.43;4.17;;;27.50;1.00;;;;;;5023635;28;20419;-78
2023/07/17 08:43:22;;;;;;;9.57;3.90;;;27.60;1.00;;;;;;5012862;28;20194;-77
2023/07/17 08:45:48;;;;;;;6.00;3.17;;;27.50;1.00;;;;;;5026840;28;20193;-76
2023/07/17 08:48:16;;;;;;;5.57;3.60;;;27.50;1.00;;;;;;5015215;28;20186;-75
2023/07/17 08:50:42;;;;;;;11.83;4.50;;;27.70;1.00;;;;;;5021348;28;20461;-76
2023/07/17 08:53:09;;;;;;;12.43;4.30;;;28.20;1.00;;;;;;5023822;28;20174;-74
2023/07/17 08:55:35;;;;;;;10.73;3.83;;;28.40;1.00;;;;;;5017438;28;20178;-76
2023/07/17 08:58:05;;;;;;;7.50;4.10;;;28.00;1.00;;;;;;5025759;28;20230;-77
2023/07/17 09:00:31;;;;;;;9.40;3.93;;;27.80;1.00;;;;;;5023290;28;20194;-76
2023/07/17 09:02:57;;;;;;;7.23;3.97;;;28.10;1.00;;;;;;5023839;28;20185;-80
2023/07/17 09:05:23;;;;;;;9.63;4.00;;;28.60;1.00;;;;;;5032034;28;20193;-77
2023/07/17 09:07:48;;;;;;;11.20;4.40;;;29.30;1.00;;;;;;5027041;28;20212;-77
2023/07/17 09:10:19;;;;;;;5.57;3.43;;;30.20;1.00;;;;;;5026744;28;20209;-76
2023/07/17 09:12:54;;;;;;;6.85;3.65;;;31.40;1.00;;;;;;5016827;28;20181;-77
2023/07/17 09:15:20;;;;;;;6.82;3.53;;;32.40;1.00;;;;;;5015149;28;20439;-77
2023/07/17 09:17:45;;;;;;;6.20;3.70;;;32.60;1.00;;;;;;5025009;28;20391;-78
2023/07/17 09:20:13;;;;;;;9.32;3.70;;;32.40;1.00;;;;;;5024682;28;20522;-77
2023/07/17 09:22:39;;;;;;;7.85;3.80;;;32.10;1.00;;;;;;5030157;28;20265;-80
2023/07/17 09:25:06;;;;;;;6.78;3.83;;;32.40;1.00;;;;;;5013214;28;20659;-77
2023/07/17 09:27:52;;;;;;;9.30;3.88;;;33.00;1.00;;;;;;5021014;28;20666;-78
2023/07/17 09:30:22;;;;;;;8.27;4.07;;;33.40;1.00;;;;;;5014622;28;20205;-78
2023/07/17 09:32:49;;;;;;;8.30;4.00;;;33.10;1.00;;;;;;5026401;28;20197;-77
2023/07/17 09:35:19;;;;;;;9.50;4.07;;;33.90;1.00;;;;;;5028562;28;20181;-85
2023/07/17 09:37:45;;;;;;;6.68;3.60;;;34.20;1.00;;;;;;5026098;28;20201;-80
2023/07/17 09:40:15;;;;;;;7.47;3.97;;;33.00;1.00;;;;;;5024401;28;20568;-78
2023/07/17 09:42:43;;;;;;;7.90;3.97;;;31.60;1.00;;;;;;5017070;28;20177;-78
2023/07/17 09:45:14;;;;;;;7.45;3.67;;;32.20;1.00;;;;;;5017888;28;20185;-80
2023/07/17 09:47:41;;;;;;;7.18;3.65;;;32.80;1.00;;;;;;5017464;28;20671;-77
2023/07/17 09:50:07;;;;;;;6.55;4.20;;;33.50;1.00;;;;;;5022417;28;20243;-78
2023/07/17 09:52:34;;;;;;;7.97;4.20;;;33.70;1.00;;;;;;5031094;28;20217;-79
2023/07/17 09:55:00;;;;;;;7.35;3.85;;;33.20;1.00;;;;;;5020516;28;20184;-78
2023/07/17 09:57:37;;;;;;;10.27;3.85;;;33.00;1.00;;;;;;5017731;28;20237;-78
2023/07/17 10:00:05;;;;;;;8.05;3.58;;;33.10;1.00;;;;;;5021781;28;20276;-80
2023/07/17 10:02:36;;;;;;;7.65;4.10;;;32.80;1.00;;;;;;5019871;28;20212;-79
2023/07/17 10:05:06;;;;;;;7.95;4.22;;;32.50;1.00;;;;;;5030886;28;20255;-78
2023/07/17 10:07:35;;;;;;;7.10;4.00;;;32.90;1.00;;;;;;5023958;28;20288;-81
2023/07/17 10:10:03;;;;;;;7.22;4.10;;;34.40;1.00;;;;;;5014021;28;20206;-78
2023/07/17 10:12:29;;;;;;;7.60;3.92;;;35.30;1.00;;;;;;5024532;28;20185;-81
2023/07/17 10:14:56;;;;;;;7.13;4.25;;;35.90;1.00;;;;;;5019368;28;20185;-81
2023/07/17 10:17:27;;;;;;;12.18;4.50;;;34.80;1.00;;;;;;5025586;28;20321;-76
2023/07/17 10:19:56;;;;;;;5.82;4.05;;;34.10;1.00;;;;;;5024248;28;20182;-77
2023/07/17 10:22:26;;;;;;;10.32;4.32;;;34.10;1.00;;;;;;5023202;28;20190;-78
2023/07/17 10:24:52;;;;;;;8.00;4.03;;;34.50;1.00;;;;;;5024755;28;20212;-77
2023/07/17 10:27:39;;;;;;;6.07;4.03;;;35.60;1.00;;;;;;5024978;28;20236;-77
2023/07/17 10:30:35;;;;;;;5.75;4.30;;;35.10;1.00;;;;;;5030478;28;20215;-77
2023/07/17 10:33:14;;;;;;;9.68;4.35;;;35.50;1.00;;;;;;5028539;28;20225;-78
2023/07/17 10:35:51;;;;;;;7.95;4.10;;;36.10;1.00;;;;;;5025514;28;20200;-78
2023/07/17 10:38:37;;;;;;;5.78;4.20;;;36.10;1.00;;;;;;5022447;28;20224;-78
2023/07/17 10:41:28;;;;;;;9.00;4.03;;;34.70;1.00;;;;;;5016770;28;20667;-78
2023/07/17 10:44:03;;;;;;;10.30;4.22;;;33.20;1.00;;;;;;5022540;28;20201;-79
2023/07/17 10:46:31;;;;;;;9.60;4.88;;;32.70;1.00;;;;;;5027677;28;20621;-78
2023/07/17 10:49:06;;;;;;;10.95;4.45;;;31.90;1.00;;;;;;5020762;28;20534;-78
2023/07/17 10:51:33;;;;;;;8.10;5.10;;;31.40;1.00;;;;;;5017991;28;20683;-82
2023/07/17 10:53:58;;;;;;;5.93;4.05;;;30.80;1.00;;;;;;5022805;28;20193;-79
2023/07/17 10:56:24;;;;;;;10.07;4.80;;;30.50;1.00;;;;;;5020822;28;20642;-80
2023/07/17 10:58:51;;;;;;;6.68;4.32;;;30.00;1.00;;;;;;5019387;28;20173;-78
2023/07/17 11:01:17;;;;;;;6.80;4.35;;;30.40;1.00;;;;;;5023719;28;20265;-79
2023/07/17 11:03:47;;;;;;;6.82;4.65;;;32.70;1.00;;;;;;5029413;28;20801;-78
2023/07/17 11:06:14;;;;;;;10.43;4.60;;;34.80;1.00;;;;;;5019911;28;20627;-80
2023/07/17 11:08:41;;;;;;;9.40;3.90;;;36.10;1.00;;;;;;5015529;28;20185;-78
2023/07/17 11:11:08;;;;;;;7.35;4.20;;;36.70;1.00;;;;;;5017235;28;20216;-79
2023/07/17 11:13:34;;;;;;;5.78;4.28;;;36.40;1.00;;;;;;5027135;28;20181;-78
2023/07/17 11:16:10;;;;;;;6.82;4.32;;;37.40;1.00;;;;;;5021143;28;20236;-77
2023/07/17 11:18:46;;;;;;;5.28;3.85;;;37.50;1.00;;;;;;5020246;28;20177;-78
2023/07/17 11:21:14;;;;;;;6.05;4.07;;;35.50;1.00;;;;;;5017019;28;20650;-77
2023/07/17 11:23:57;;;;;;;7.45;4.20;;;34.00;1.00;;;;;;5017199;28;20512;-79
2023/07/17 11:26:27;;;;;;;6.25;4.20;;;33.50;1.00;;;;;;5021694;28;20237;-78
2023/07/17 11:28:55;;;;;;;5.50;3.45;;;34.80;1.00;;;;;;5011486;28;20188;-77
2023/07/17 11:31:23;;;;;;;7.90;4.10;;;35.20;1.00;;;;;;5020451;28;20209;-77
2023/07/17 11:33:59;;;;;;;5.13;3.80;;;34.40;1.00;;;;;;5028259;28;20276;-77
2023/07/17 11:36:26;;;;;;;6.80;3.90;;;35.00;1.00;;;;;;5025740;28;20288;-77
2023/07/17 11:38:55;;;;;;;5.53;4.00;;;34.40;1.00;;;;;;5020660;28;20273;-77
2023/07/17 11:41:21;;;;;;;7.65;3.92;;;33.30;1.00;;;;;;5015567;28;20271;-79
2023/07/17 11:43:56;;;;;;;8.40;4.07;;;33.60;1.00;;;;;;5025065;28;20284;-78
2023/07/17 11:46:22;;;;;;;8.13;4.30;;;33.90;1.00;;;;;;5026213;28;20227;-78
2023/07/17 11:48:52;;;;;;;9.60;4.43;;;33.50;1.00;;;;;;5014410;28;20764;-81
2023/07/17 11:51:22;;;;;;;9.18;4.25;;;32.60;1.00;;;;;;5027046;28;20201;-78
2023/07/17 11:53:53;;;;;;;8.32;3.80;;;31.90;1.00;;;;;;5022658;28;20181;-76
2023/07/17 11:56:20;;;;;;;9.20;4.40;;;31.50;1.00;;;;;;5018905;28;20301;-78
2023/07/17 11:58:51;;;;;;;8.25;4.13;;;31.90;1.00;;;;;;5010323;28;20750;-77
2023/07/17 12:01:16;;;;;;;5.85;4.47;;;32.30;1.00;;;;;;5018641;28;20256;-78
2023/07/17 12:03:42;;;;;;;6.88;4.10;;;33.80;1.00;;;;;;5027673;28;20667;-76
2023/07/17 12:06:07;;;;;;;8.27;4.82;;;33.90;1.00;;;;;;5017115;28;20188;-79
2023/07/17 12:08:33;;;;;;;6.85;4.38;;;33.80;1.00;;;;;;5017770;28;20189;-76
2023/07/17 12:10:58;;;;;;;6.03;3.83;;;32.70;1.00;;;;;;5015902;28;20684;-77
2023/07/17 12:13:24;;;;;;;8.27;4.05;;;32.90;1.00;;;;;;5025982;28;20288;-78
2023/07/17 12:15:50;;;;;;;6.20;3.70;;;35.60;1.00;;;;;;5020728;28;20206;-77
2023/07/17 12:18:15;;;;;;;6.70;4.10;;;35.50;1.00;;;;;;5025168;28;20268;-81
2023/07/17 12:20:41;;;;;;;6.22;3.97;;;36.80;1.00;;;;;;5026869;28;20362;-77
2023/07/17 12:23:06;;;;;;;7.88;3.72;;;37.50;1.00;;;;;;5025481;28;20286;-81
2023/07/17 12:25:32;;;;;;;7.80;4.13;;;38.10;1.00;;;;;;5028175;28;20195;-82
2023/07/17 12:28:00;;;;;;;5.38;3.50;;;38.70;1.00;;;;;;5029874;28;20299;-77
2023/07/17 12:30:25;;;;;;;6.03;3.63;;;39.60;1.00;;;;;;5054448;23;20284;-75
2023/07/17 12:32:51;;;;;;;5.32;3.30;;;39.50;1.00;;;;;;4998296;28;20919;-73
2023/07/17 12:35:17;;;;;;;6.03;3.70;;;40.40;1.00;;;;;;5000526;28;20174;-73
2023/07/17 12:37:42;;;;;;;33.08;4.10;;;40.40;1.00;;;;;;5004849;28;20182;-73
2023/07/17 12:40:08;;;;;;;5.25;3.03;;;39.40;1.00;;;;;;5020693;28;20184;-74
2023/07/17 12:42:34;;;;;;;5.82;3.70;;;38.10;1.00;;;;;;4997165;28;20325;-72
2023/07/17 12:44:59;;;;;;;5.18;3.45;;;37.60;1.00;;;;;;5009651;28;20269;-71
2023/07/17 12:47:25;;;;;;;5.18;3.50;;;37.10;1.00;;;;;;5001465;28;20346;-75
2023/07/17 12:49:51;;;;;;;6.38;3.35;;;37.10;1.00;;;;;;4998215;28;20178;-72
2023/07/17 12:52:16;;;;;;;7.70;3.60;;;36.70;1.00;;;;;;5000239;28;20198;-74
2023/07/17 12:54:42;;;;;;;6.63;3.42;;;36.50;1.00;;;;;;5001411;28;20198;-73